Terminal Aerodrome Forecast
Issued by NWS Twin Cities, MN

Home | Current Version | Previous Version | Text Only | Print | Product List | Glossary Off
Versions: 1 2 3 4 5 6 7 8 9 10 11 12 13 14 15 16

000
FTUS43 KMPX 231140
TAFEAU
TAF
KEAU 231140Z 2312/2412 15012KT P6SM SCT150
     FM231600 18014G22KT P6SM BKN100
     FM240200 19014G20KT P6SM VCSH SCT025 OVC050
      TEMPO 2402/2405 6SM -TSRA OVC040CB
     FM240500 18008G15KT 6SM BR VCSH OVC050=

USA.gov is the U.S. government's official web portal to all federal, state and local government web resources and services.